Time;durP1;ratioP1;P1;durP2;ratioP2;P2;SDS_P1;SDS_P2;PMS_P1;PMS_P2;Temp;Humidity;BMP_temperature;BMP_pressure;BME280_temperature;BME280_humidity;BME280_pressure;Samples;Min_cycle;Max_cycle;Signal;HPM_P1;HPM_P2
2021/05/26 00:02:03;;;;;;;10.80;9.90;;;;;;;17.26;67.43;101366.88;4984735;28;103951;-69
2021/05/26 00:04:29;;;;;;;10.57;9.65;;;;;;;17.26;67.55;101363.31;4983784;28;101713;-68
2021/05/26 00:06:57;;;;;;;10.30;9.30;;;;;;;17.25;67.72;101367.19;4985178;28;101693;-69
2021/05/26 00:09:23;;;;;;;10.95;9.85;;;;;;;17.25;67.94;101361.69;4982493;28;102291;-69
2021/05/26 00:11:50;;;;;;;10.27;9.38;;;;;;;17.23;67.51;101375.72;4982187;28;103927;-69
2021/05/26 00:14:16;;;;;;;10.88;9.90;;;;;;;17.25;67.79;101361.69;4982768;28;101576;-69
2021/05/26 00:17:04;;;;;;;11.05;9.95;;;;;;;17.24;68.04;101360.06;4981981;28;101621;-69
2021/05/26 00:19:31;;;;;;;11.23;10.23;;;;;;;17.24;67.84;101366.38;4982922;28;102171;-68
2021/05/26 00:21:59;;;;;;;11.32;10.23;;;;;;;17.25;67.68;101368.00;4981544;28;103916;-68
2021/05/26 00:24:25;;;;;;;9.98;9.02;;;;;;;17.24;67.34;101360.88;4981067;28;101703;-68
2021/05/26 00:26:52;;;;;;;10.35;9.35;;;;;;;17.25;67.56;101367.19;4981547;28;102078;-69
2021/05/26 00:29:18;;;;;;;10.70;9.70;;;;;;;17.24;68.19;101374.63;4982669;28;102181;-69
2021/05/26 00:31:45;;;;;;;10.95;9.85;;;;;;;17.22;67.80;101362.28;4981203;28;103781;-68
2021/05/26 00:34:12;;;;;;;10.10;9.10;;;;;;;17.22;67.86;101365.03;4981819;28;101788;-68
2021/05/26 00:36:38;;;;;;;9.90;8.98;;;;;;;17.21;68.16;101360.66;4981336;28;101695;-68
2021/05/26 00:39:07;;;;;;;9.65;8.75;;;;;;;17.20;67.98;101359.84;4981919;28;102277;-68
2021/05/26 00:41:34;;;;;;;11.05;9.95;;;;;;;17.20;67.62;101359.00;4980933;28;103997;-68
2021/05/26 00:44:00;;;;;;;9.77;8.88;;;;;;;17.19;67.96;101363.69;4981656;28;102120;-68
2021/05/26 00:46:27;;;;;;;10.40;9.38;;;;;;;17.19;68.06;101351.88;4981592;28;101879;-69
2021/05/26 00:48:53;;;;;;;10.40;9.40;;;;;;;17.19;68.01;101351.88;4981866;28;102251;-68
2021/05/26 00:51:20;;;;;;;11.05;9.95;;;;;;;17.17;68.04;101349.44;4981443;28;103727;-69
2021/05/26 00:53:46;;;;;;;9.93;8.93;;;;;;;17.18;67.87;101344.75;4982132;28;101595;-68
2021/05/26 00:56:14;;;;;;;10.30;9.40;;;;;;;17.16;68.34;101344.22;4981729;28;101668;-68
2021/05/26 00:58:41;;;;;;;9.43;8.63;;;;;;;17.17;67.90;101349.44;4982509;28;102102;-68
2021/05/26 01:01:08;;;;;;;9.50;8.65;;;;;;;17.15;67.96;101348.91;4981152;28;103745;-68
2021/05/26 01:03:34;;;;;;;11.15;10.05;;;;;;;17.16;68.37;101346.97;4981604;28;101615;-69
2021/05/26 01:06:01;;;;;;;9.95;9.05;;;;;;;17.15;67.84;101337.09;4981060;28;101551;-68
2021/05/26 01:08:27;;;;;;;10.65;9.75;;;;;;;17.16;67.83;101344.22;4982082;28;102120;-68
2021/05/26 01:10:55;;;;;;;11.13;10.13;;;;;;;17.17;67.67;101337.63;4980712;28;103885;-68
2021/05/26 01:13:25;;;;;;;10.20;9.20;;;;;;;17.17;68.01;101332.13;4981405;28;101902;-68
2021/05/26 01:15:51;;;;;;;11.10;9.95;;;;;;;17.17;67.93;101327.44;4980709;28;101606;-69
2021/05/26 01:18:20;;;;;;;10.18;9.27;;;;;;;17.18;67.90;101326.31;4981989;28;101728;-68
2021/05/26 01:20:47;;;;;;;10.82;9.75;;;;;;;17.17;68.39;101321.13;4980406;28;103953;-68
2021/05/26 01:23:18;;;;;;;11.48;10.50;;;;;;;17.18;68.54;101331.00;4981336;28;101741;-68
2021/05/26 01:25:48;;;;;;;11.60;10.50;;;;;;;17.17;68.25;101335.69;4978115;28;101703;-69
2021/05/26 01:28:15;;;;;;;10.98;9.98;;;;;;;17.17;68.33;101330.19;4981649;28;102159;-69
2021/05/26 01:30:43;;;;;;;10.77;9.77;;;;;;;17.18;67.76;101333.75;4980313;28;104023;-68
2021/05/26 01:33:09;;;;;;;10.80;9.88;;;;;;;17.19;68.18;101335.38;4980923;28;101792;-68
2021/05/26 01:35:38;;;;;;;10.88;9.90;;;;;;;17.18;68.43;101344.75;4980388;28;101756;-69
2021/05/26 01:38:04;;;;;;;;;;;;;;;17.17;67.85;101334.88;4982290;28;102117;-68
2021/05/26 01:40:32;;;;;;;11.10;10.10;;;;;;;17.17;68.44;101343.13;4980367;28;103778;-69
2021/05/26 01:42:59;;;;;;;9.73;8.82;;;;;;;17.16;68.50;101341.47;4980871;28;101530;-68
2021/05/26 01:45:25;;;;;;;10.13;9.23;;;;;;;17.16;68.25;101341.47;4980563;28;101749;-68
2021/05/26 01:47:52;;;;;;;10.15;9.25;;;;;;;17.15;68.58;101337.91;4981778;28;102161;-68
2021/05/26 01:50:21;;;;;;;9.65;8.85;;;;;;;17.16;67.75;101341.47;4980008;28;103725;-68
2021/05/26 01:52:50;;;;;;;10.57;9.60;;;;;;;17.17;67.71;101343.94;4980460;28;102098;-69
2021/05/26 01:55:16;;;;;;;10.40;9.40;;;;;;;17.17;67.93;101343.94;4980311;28;101761;-68
2021/05/26 01:57:45;;;;;;;10.70;9.70;;;;;;;17.17;67.84;101354.94;4981519;28;102263;-68
2021/05/26 02:00:15;;;;;;;10.57;9.57;;;;;;;17.17;68.36;101349.44;4979982;28;103960;-69
2021/05/26 02:02:41;;;;;;;9.57;8.70;;;;;;;17.17;68.04;101359.63;4980655;28;101837;-68
2021/05/26 02:05:10;;;;;;;10.93;9.88;;;;;;;17.16;68.42;101358.78;4980318;28;101792;-68
2021/05/26 02:07:37;;;;;;;10.43;9.52;;;;;;;17.17;68.24;101359.63;4981217;28;102153;-68
2021/05/26 02:10:06;;;;;;;9.80;9.00;;;;;;;17.17;68.21;101367.88;4979951;28;103865;-69
2021/05/26 02:12:33;;;;;;;11.13;10.07;;;;;;;17.16;68.35;101369.78;4980496;28;101731;-68
2021/05/26 02:15:02;;;;;;;9.85;9.00;;;;;;;17.18;68.14;101361.25;4979928;28;101671;-69
2021/05/26 02:17:30;;;;;;;9.32;8.52;;;;;;;17.17;68.22;101365.94;4981238;28;101845;-68
2021/05/26 02:19:57;;;;;;;10.25;9.35;;;;;;;17.18;67.92;101372.25;4979540;28;103955;-68
2021/05/26 02:22:24;;;;;;;9.88;8.98;;;;;;;17.19;68.38;101376.63;4980267;28;101727;-69
2021/05/26 02:24:51;;;;;;;10.52;9.55;;;;;;;17.16;67.92;101372.53;4979809;28;101671;-68
2021/05/26 02:27:17;;;;;;;9.70;8.80;;;;;;;17.17;68.31;101376.13;4981154;28;101898;-68
2021/05/26 02:29:45;;;;;;;9.40;8.60;;;;;;;17.15;67.93;101375.59;4983053;28;103836;-69
2021/05/26 02:32:12;;;;;;;9.55;8.73;;;;;;;17.16;68.17;101366.22;4966158;28;101895;-69
2021/05/26 02:34:41;;;;;;;9.18;8.38;;;;;;;17.15;68.60;101368.16;4981906;28;101799;-68
2021/05/26 02:37:07;;;;;;;8.57;7.88;;;;;;;17.16;68.44;101374.47;4984247;28;102203;-69
2021/05/26 02:39:36;;;;;;;9.10;8.30;;;;;;;17.14;68.67;101360.22;4982653;28;104270;-68
2021/05/26 02:42:04;;;;;;;9.20;8.40;;;;;;;17.15;68.46;101362.66;4983288;28;101780;-68
2021/05/26 02:44:30;;;;;;;8.93;8.13;;;;;;;17.13;68.26;101356.66;4983236;28;101879;-68
2021/05/26 02:46:59;;;;;;;8.68;7.90;;;;;;;17.13;68.27;101359.41;4984227;28;102172;-68
2021/05/26 02:49:26;;;;;;;8.90;8.15;;;;;;;17.14;68.60;101362.97;4982241;28;103224;-68
2021/05/26 02:52:01;;;;;;;8.52;7.82;;;;;;;17.14;68.71;101360.22;4983174;28;101734;-68
2021/05/26 02:54:27;;;;;;;7.97;7.28;;;;;;;17.13;68.91;101364.91;4982935;28;101722;-68
2021/05/26 02:56:54;;;;;;;8.52;7.82;;;;;;;17.15;68.30;101357.16;4983889;28;102176;-68
2021/05/26 02:59:20;;;;;;;8.77;7.97;;;;;;;17.14;68.84;101361.03;4982644;28;103973;-68
2021/05/26 03:01:47;;;;;;;8.73;7.93;;;;;;;17.14;68.50;101365.72;4966020;28;101812;-68
2021/05/26 03:04:13;;;;;;;9.27;8.50;;;;;;;17.14;68.58;101363.78;4982643;28;101717;-68
2021/05/26 03:06:41;;;;;;;8.63;7.93;;;;;;;17.14;68.51;101349.22;4984217;28;102120;-68
2021/05/26 03:09:08;;;;;;;8.38;7.68;;;;;;;17.14;68.62;101360.22;4982320;28;104120;-68
2021/05/26 03:11:34;;;;;;;8.32;7.60;;;;;;;17.13;68.18;101359.41;4983280;28;101889;-68
2021/05/26 03:14:06;;;;;;;7.70;7.00;;;;;;;17.13;68.24;101364.06;4982714;28;101832;-68
2021/05/26 03:16:32;;;;;;;8.82;7.95;;;;;;;17.14;68.74;101371.22;4983694;28;102165;-68
2021/05/26 03:18:59;;;;;;;8.07;7.43;;;;;;;17.13;68.21;101372.31;4982141;28;103713;-68
2021/05/26 03:21:25;;;;;;;8.40;7.70;;;;;;;17.13;68.53;101375.91;4981646;28;101800;-68
2021/05/26 03:23:53;;;;;;;7.93;7.32;;;;;;;17.13;68.66;101375.91;4982391;28;101715;-68
2021/05/26 03:26:20;;;;;;;7.00;6.40;;;;;;;17.12;68.70;101379.75;4983548;28;102240;-68
2021/05/26 03:28:46;;;;;;;7.68;7.03;;;;;;;17.14;68.83;101387.72;4981274;28;102883;-68
2021/05/26 03:31:13;;;;;;;8.45;7.70;;;;;;;17.16;68.54;101385.47;4982722;28;101750;-68
2021/05/26 03:33:40;;;;;;;8.60;7.90;;;;;;;17.15;68.11;101383.84;4982251;28;101669;-68
2021/05/26 03:36:08;;;;;;;8.80;8.00;;;;;;;17.15;68.41;101384.66;4983362;28;101615;-68
2021/05/26 03:38:34;;;;;;;8.38;7.57;;;;;;;17.16;69.17;101396.47;4981355;28;102842;-68
2021/05/26 03:41:02;;;;;;;8.82;8.13;;;;;;;17.16;68.55;101397.28;4981852;28;101760;-68
2021/05/26 03:43:28;;;;;;;8.13;7.43;;;;;;;17.17;68.68;101398.13;4982052;28;101754;-68
2021/05/26 03:45:57;;;;;;;8.52;7.72;;;;;;;17.17;69.22;101406.38;4983249;28;102118;-68
2021/05/26 03:48:24;;;;;;;8.60;7.82;;;;;;;17.17;69.24;101411.88;4981681;28;104033;-68
2021/05/26 03:50:51;;;;;;;8.68;7.97;;;;;;;17.16;69.20;101405.53;4982487;28;101796;-69
2021/05/26 03:53:17;;;;;;;8.63;7.93;;;;;;;17.15;69.15;101401.16;4981301;28;102069;-68
2021/05/26 03:55:44;;;;;;;9.13;8.35;;;;;;;17.15;69.81;101400.34;4983651;28;102109;-69
2021/05/26 03:58:12;;;;;;;7.90;7.20;;;;;;;17.16;69.54;101410.22;4981770;28;104039;-68
2021/05/26 04:00:38;;;;;;;7.85;7.15;;;;;;;17.15;69.63;101408.59;4982874;28;101877;-68
2021/05/26 04:03:05;;;;;;;8.70;7.88;;;;;;;17.16;69.84;101412.97;4982207;28;102101;-68
2021/05/26 04:05:31;;;;;;;8.20;7.47;;;;;;;17.17;69.64;101420.13;4983608;28;102177;-68
2021/05/26 04:07:59;;;;;;;9.27;8.43;;;;;;;17.17;69.64;101418.19;4984174;28;102828;-68
2021/05/26 04:10:27;;;;;;;8.93;8.13;;;;;;;17.18;69.22;101421.75;4985084;28;101776;-68
2021/05/26 04:12:55;;;;;;;8.60;7.80;;;;;;;17.18;69.58;101421.75;4983547;28;101680;-68
2021/05/26 04:15:22;;;;;;;8.10;7.47;;;;;;;17.18;69.52;101427.25;4985516;28;101805;-69
2021/05/26 04:17:49;;;;;;;9.48;8.57;;;;;;;17.20;69.13;101430.50;4982215;28;103936;-68
2021/05/26 04:20:16;;;;;;;8.90;8.20;;;;;;;17.23;69.50;101435.41;4982697;28;101737;-69
2021/05/26 04:22:42;;;;;;;9.27;8.48;;;;;;;17.25;69.27;101439.53;4982151;28;102084;-68
2021/05/26 04:25:09;;;;;;;9.73;8.93;;;;;;;17.26;68.89;101437.59;4983028;28;102066;-69
2021/05/26 04:27:36;;;;;;;8.98;8.27;;;;;;;17.26;69.33;101443.09;4981329;28;103937;-68
2021/05/26 04:30:04;;;;;;;9.63;8.73;;;;;;;17.26;70.00;101429.31;4982379;28;101723;-69
2021/05/26 04:32:32;;;;;;;10.55;9.55;;;;;;;17.28;69.88;101438.13;4981490;28;101612;-68
2021/05/26 04:34:59;;;;;;;9.73;8.93;;;;;;;17.30;69.77;101433.13;4982656;28;102106;-68
2021/05/26 04:37:26;;;;;;;10.38;9.48;;;;;;;17.32;69.49;101436.41;4981382;28;103921;-69
2021/05/26 04:39:53;;;;;;;9.20;8.32;;;;;;;17.35;69.11;101444.06;4981793;28;101675;-69
2021/05/26 04:42:20;;;;;;;9.80;9.00;;;;;;;17.38;69.56;101443.47;4979930;28;101712;-68
2021/05/26 04:44:46;;;;;;;9.65;8.77;;;;;;;17.37;69.09;101441.81;4982728;28;102039;-68
2021/05/26 04:47:13;;;;;;;9.18;8.38;;;;;;;17.38;68.98;101448.13;4980908;28;104165;-68
2021/05/26 04:49:49;;;;;;;9.52;8.73;;;;;;;17.41;69.32;101442.84;4981679;28;101561;-69
2021/05/26 04:52:16;;;;;;;8.60;7.80;;;;;;;17.42;69.41;101444.50;4980522;28;102090;-69
2021/05/26 04:54:43;;;;;;;9.80;8.90;;;;;;;17.43;69.14;101442.56;4982685;28;102020;-68
2021/05/26 04:57:09;;;;;;;8.45;7.75;;;;;;;17.43;69.61;101448.06;4980948;28;103878;-66
2021/05/26 04:59:37;;;;;;;10.75;8.73;;;;;;;17.37;69.58;101446.50;4980628;28;101703;-67
2021/05/26 05:02:05;;;;;;;9.25;6.72;;;;;;;17.23;71.30;101452.75;4981581;28;101759;-67
2021/05/26 05:04:31;;;;;;;9.75;7.43;;;;;;;17.17;71.80;101455.88;4982130;28;102191;-67
2021/05/26 05:06:59;;;;;;;7.18;6.47;;;;;;;17.24;71.59;101445.34;4963669;28;103995;-67
2021/05/26 05:09:25;;;;;;;6.43;5.88;;;;;;;17.25;72.37;101450.53;4981319;28;101776;-67
2021/05/26 05:11:53;;;;;;;12.85;6.32;;;;;;;17.35;72.44;101449.56;4980817;28;101625;-67
2021/05/26 05:14:19;;;;;;;6.45;5.78;;;;;;;17.39;72.11;101449.78;4982143;28;101698;-68
2021/05/26 05:16:46;;;;;;;8.85;5.53;;;;;;;17.35;72.79;101444.06;4980449;28;104003;-68
2021/05/26 05:19:13;;;;;;;8.43;5.90;;;;;;;17.31;71.96;101454.03;4981396;28;101735;-67
2021/05/26 05:21:40;;;;;;;6.15;5.55;;;;;;;17.37;72.50;101452.00;4963237;28;101755;-67
2021/05/26 05:24:08;;;;;;;6.25;5.60;;;;;;;17.41;71.68;101453.84;4981896;28;102258;-67
2021/05/26 05:26:35;;;;;;;7.47;5.50;;;;;;;17.49;71.37;101455.94;4979139;28;103870;-67
2021/05/26 05:29:03;;;;;;;9.07;6.20;;;;;;;17.58;71.53;101460.75;4980928;28;101808;-67
2021/05/26 05:31:31;;;;;;;10.43;6.35;;;;;;;17.59;71.88;101471.44;4963448;28;101786;-68
2021/05/26 05:33:58;;;;;;;6.55;5.80;;;;;;;17.67;71.91;101470.78;4982034;28;102160;-67
2021/05/26 05:36:24;;;;;;;7.22;5.60;;;;;;;17.74;71.73;101467.63;4979957;28;102577;-68
2021/05/26 05:38:51;;;;;;;14.82;7.15;;;;;;;17.80;70.95;101474.72;4980749;28;101841;-68
2021/05/26 05:41:18;;;;;;;12.00;6.97;;;;;;;17.83;70.80;101471.34;4980509;28;101703;-67
2021/05/26 05:43:45;;;;;;;14.27;6.97;;;;;;;17.87;70.68;101472.38;4981579;28;102156;-68
2021/05/26 05:46:11;;;;;;;25.60;6.45;;;;;;;17.97;70.59;101466.69;4980341;28;103023;-66
2021/05/26 05:48:38;;;;;;;11.10;6.45;;;;;;;18.01;70.69;101466.91;4980796;28;102166;-67
2021/05/26 05:51:05;;;;;;;8.02;6.10;;;;;;;18.07;70.60;101464.88;4980286;28;101653;-67
2021/05/26 05:53:31;;;;;;;7.13;6.43;;;;;;;18.08;69.88;101461.00;4980945;28;101856;-67
2021/05/26 05:56:00;;;;;;;6.93;6.20;;;;;;;18.12;69.84;101468.34;4979983;28;103871;-67
2021/05/26 05:58:28;;;;;;;9.93;6.30;;;;;;;18.18;69.76;101469.91;4980530;28;101576;-67
2021/05/26 06:00:54;;;;;;;7.50;6.38;;;;;;;18.22;69.75;101478.38;4980147;28;101648;-67
2021/05/26 06:03:21;;;;;;;5.97;5.38;;;;;;;18.26;70.04;101482.16;4980031;28;102183;-67
2021/05/26 06:05:48;;;;;;;7.25;5.53;;;;;;;18.27;69.19;101486.53;4979419;28;104057;-67
2021/05/26 06:08:14;;;;;;;8.20;5.40;;;;;;;18.24;69.38;101495.41;4962978;28;101732;-67
2021/05/26 06:10:41;;;;;;;8.48;5.82;;;;;;;18.36;69.42;101505.94;4979777;28;101675;-69
2021/05/26 06:13:08;;;;;;;11.20;6.32;;;;;;;18.38;68.96;101504.50;4981108;28;102134;-68
2021/05/26 06:15:36;;;;;;;9.38;5.95;;;;;;;18.40;68.96;101513.28;4979256;28;103877;-69
2021/05/26 06:18:04;;;;;;;7.65;6.40;;;;;;;18.41;69.14;101512.16;4980199;28;101741;-68
2021/05/26 06:20:30;;;;;;;8.75;6.25;;;;;;;18.44;69.33;101513.50;4979449;28;101720;-68
2021/05/26 06:22:57;;;;;;;11.38;6.15;;;;;;;18.40;68.77;101524.31;4980865;28;102065;-69
2021/05/26 06:25:24;;;;;;;12.75;6.43;;;;;;;18.41;69.38;101514.09;4976252;28;102771;-69
2021/05/26 06:27:50;;;;;;;11.05;6.40;;;;;;;18.47;68.47;101516.47;4979936;28;101701;-69
2021/05/26 06:30:17;;;;;;;7.22;6.10;;;;;;;18.49;68.46;101516.97;4979268;28;101820;-69
2021/05/26 06:32:45;;;;;;;6.80;6.10;;;;;;;18.57;68.74;101512.69;4981001;28;102086;-67
2021/05/26 06:35:13;;;;;;;12.02;6.40;;;;;;;18.56;69.16;101504.72;4979290;28;103915;-69
2021/05/26 06:37:39;;;;;;;9.00;6.55;;;;;;;18.54;68.99;101512.50;4979702;28;101722;-69
2021/05/26 06:40:07;;;;;;;8.98;6.20;;;;;;;18.60;68.51;101511.25;4979701;28;101901;-69
2021/05/26 06:42:33;;;;;;;17.58;7.03;;;;;;;18.69;68.68;101509.44;4980423;28;102304;-69
2021/05/26 06:45:00;;;;;;;12.98;6.20;;;;;;;18.75;68.37;101502.69;4979004;28;103929;-68
2021/05/26 06:47:27;;;;;;;9.23;6.45;;;;;;;18.80;68.30;101510.88;4962195;28;101612;-69
2021/05/26 06:49:54;;;;;;;8.13;6.28;;;;;;;18.82;68.40;101525.16;4979464;28;101647;-69
2021/05/26 06:52:21;;;;;;;7.13;6.43;;;;;;;18.78;68.72;101515.88;4980316;28;102130;-69
2021/05/26 06:54:48;;;;;;;9.70;6.53;;;;;;;18.78;68.30;101524.16;4979424;28;104044;-69
2021/05/26 06:57:17;;;;;;;8.88;6.00;;;;;;;18.87;68.18;101527.84;4979780;28;101692;-69
2021/05/26 06:59:43;;;;;;;8.80;6.70;;;;;;;18.83;68.21;101524.06;4979553;28;101562;-69
2021/05/26 07:02:10;;;;;;;9.30;6.55;;;;;;;18.93;68.03;101523.00;4981118;28;102059;-70
2021/05/26 07:04:37;;;;;;;9.00;6.32;;;;;;;18.94;68.12;101517.19;4979097;28;104196;-69
2021/05/26 07:07:06;;;;;;;12.52;6.57;;;;;;;18.98;68.22;101527.63;4979803;28;101723;-68
2021/05/26 07:09:32;;;;;;;8.65;6.15;;;;;;;19.03;68.35;101521.97;4979154;28;101612;-69
2021/05/26 07:11:59;;;;;;;9.75;6.30;;;;;;;19.08;68.54;101516.38;4980302;28;102179;-69
2021/05/26 07:14:26;;;;;;;8.50;6.93;;;;;;;19.07;68.52;101521.03;4980378;28;103844;-69
2021/05/26 07:16:53;;;;;;;8.07;7.28;;;;;;;19.04;68.10;101531.88;4981798;28;101752;-69
2021/05/26 07:19:20;;;;;;;10.85;6.53;;;;;;;19.08;68.48;101538.44;4982322;28;101730;-69
2021/05/26 07:21:46;;;;;;;8.77;6.53;;;;;;;19.11;68.14;101532.28;4983040;28;102058;-68
2021/05/26 07:24:14;;;;;;;7.85;6.30;;;;;;;19.11;67.70;101526.75;4980563;28;102721;-67
2021/05/26 07:26:40;;;;;;;10.13;6.53;;;;;;;19.17;67.95;101525.53;4982364;28;101715;-67
2021/05/26 07:29:07;;;;;;;15.25;7.40;;;;;;;19.17;68.21;101523.59;4981778;28;101962;-69
2021/05/26 07:31:33;;;;;;;33.92;8.07;;;;;;;19.25;67.76;101530.31;4982899;28;102188;-68
2021/05/26 07:34:00;;;;;;;16.67;7.05;;;;;;;19.20;67.21;101522.16;4964026;28;103911;-69
2021/05/26 07:36:27;;;;;;;14.30;6.75;;;;;;;19.23;67.04;101529.81;4982023;28;101612;-69
2021/05/26 07:38:53;;;;;;;10.95;6.68;;;;;;;19.22;66.65;101522.66;4981368;28;101644;-69
2021/05/26 07:41:21;;;;;;;10.05;6.65;;;;;;;19.20;66.63;101527.69;4982985;28;102062;-69
2021/05/26 07:43:48;;;;;;;10.40;6.18;;;;;;;19.26;66.36;101534.72;4981299;28;102611;-68
2021/05/26 07:46:14;;;;;;;8.02;6.32;;;;;;;19.22;66.34;101525.41;4981750;28;101753;-69
2021/05/26 07:49:00;;;;;;;11.10;5.82;;;;;;;19.24;66.06;101531.44;4978655;28;101730;-68
2021/05/26 07:51:29;;;;;;;7.28;6.05;;;;;;;19.28;66.03;101532.47;4982407;28;102125;-69
2021/05/26 07:53:57;;;;;;;8.63;5.90;;;;;;;19.30;66.09;101529.41;4980529;28;103923;-68
2021/05/26 07:56:24;;;;;;;7.18;5.80;;;;;;;19.31;65.83;101542.06;4981985;28;101729;-69
2021/05/26 07:58:51;;;;;;;10.45;5.82;;;;;;;19.44;65.66;101530.19;4981056;28;101738;-69
2021/05/26 08:01:17;;;;;;;7.25;5.82;;;;;;;19.28;65.88;101526.94;4982688;28;102114;-68
2021/05/26 08:03:43;;;;;;;10.18;5.90;;;;;;;19.25;65.88;101523.97;4980560;28;104838;-68
2021/05/26 08:06:12;;;;;;;8.05;5.70;;;;;;;19.22;65.87;101517.13;4981544;28;102004;-68
2021/05/26 08:08:38;;;;;;;5.75;4.97;;;;;;;19.22;65.95;101511.63;4979910;28;101757;-68
2021/05/26 08:11:05;;;;;;;7.90;6.25;;;;;;;19.31;65.50;101509.75;4965502;28;102277;-68
2021/05/26 08:13:34;;;;;;;7.45;5.80;;;;;;;19.34;65.83;101503.63;4963559;28;103960;-69
2021/05/26 08:16:02;;;;;;;7.32;6.60;;;;;;;19.39;65.53;101500.72;4981576;28;101880;-68
2021/05/26 08:18:29;;;;;;;8.18;6.50;;;;;;;19.42;66.09;101502.06;4981301;28;101868;-69
2021/05/26 08:20:58;;;;;;;13.98;5.97;;;;;;;19.49;65.90;101504.41;4982432;28;102084;-69
2021/05/26 08:23:26;;;;;;;11.25;6.10;;;;;;;19.43;65.52;101493.47;4980360;28;104074;-68
2021/05/26 08:25:53;;;;;;;18.60;6.60;;;;;;;19.52;65.21;101498.25;4980759;28;102003;-69
2021/05/26 08:28:19;;;;;;;11.05;6.35;;;;;;;19.53;65.07;101505.41;4981494;28;102027;-69
2021/05/26 08:30:47;;;;;;;13.95;6.50;;;;;;;19.48;65.49;101503.59;4984719;28;102044;-70
2021/05/26 08:33:14;;;;;;;12.00;6.18;;;;;;;19.54;65.16;101502.31;4984484;28;103841;-69
2021/05/26 08:35:40;;;;;;;12.68;6.95;;;;;;;19.54;65.45;101501.50;4985339;28;101748;-69
2021/05/26 08:38:07;;;;;;;9.23;6.38;;;;;;;19.50;64.90;101514.28;4985119;28;101682;-69
2021/05/26 08:40:33;;;;;;;23.08;6.70;;;;;;;19.52;64.86;101510.09;4984224;28;102232;-70
2021/05/26 08:43:01;;;;;;;15.27;7.35;;;;;;;19.69;64.30;101503.94;4964841;28;102921;-71
2021/05/26 08:45:29;;;;;;;32.88;9.65;;;;;;;19.58;64.66;101508.03;4982919;28;101604;-69
2021/05/26 08:47:59;;;;;;;17.77;7.68;;;;;;;19.53;64.79;101516.44;4981494;28;101597;-69
2021/05/26 08:50:26;;;;;;;19.80;7.00;;;;;;;19.55;64.45;101514.19;4979624;28;101704;-70
2021/05/26 08:52:53;;;;;;;16.60;6.97;;;;;;;19.64;64.00;101506.81;4980295;28;103975;-71
2021/05/26 08:55:19;;;;;;;10.30;6.68;;;;;;;19.62;64.32;101511.81;4981505;28;101560;-70
2021/05/26 08:57:46;;;;;;;10.23;6.93;;;;;;;19.60;64.61;101517.63;4981283;28;101627;-70
2021/05/26 09:00:13;;;;;;;12.88;7.70;;;;;;;19.53;64.51;101508.16;4982471;28;102386;-70
2021/05/26 09:02:40;;;;;;;9.73;7.30;;;;;;;19.54;64.23;101509.78;4980627;28;103899;-71
2021/05/26 09:05:21;;;;;;;11.93;7.53;;;;;;;19.51;64.98;101505.72;4981551;28;101600;-70
2021/05/26 09:07:47;;;;;;;8.48;7.07;;;;;;;19.50;64.64;101517.88;4980976;28;101882;-70
2021/05/26 09:10:14;;;;;;;11.48;7.82;;;;;;;19.54;64.21;101507.84;4982107;28;102089;-70
2021/05/26 09:12:42;;;;;;;8.75;7.90;;;;;;;19.51;64.76;101524.19;4980359;28;103972;-70
2021/05/26 09:15:13;;;;;;;12.25;7.13;;;;;;;19.50;63.91;101511.53;4963361;28;101825;-70
2021/05/26 09:17:40;;;;;;;7.75;7.03;;;;;;;19.59;64.68;101516.00;4979995;28;101867;-70
2021/05/26 09:20:17;;;;;;;12.15;7.10;;;;;;;19.57;64.29;101539.53;4981451;28;102117;-71
2021/05/26 09:23:03;;;;;;;10.75;7.28;;;;;;;19.58;63.91;101521.81;4980027;28;103737;-71
2021/05/26 09:25:32;;;;;;;9.93;7.07;;;;;;;19.62;64.55;101520.09;4963464;28;101644;-70
2021/05/26 09:28:30;;;;;;;10.80;7.18;;;;;;;19.64;63.77;101520.63;4980755;28;101837;-70
2021/05/26 09:31:06;;;;;;;7.70;6.57;;;;;;;19.55;64.37;101525.25;4902113;28;102231;-70
2021/05/26 09:33:38;;;;;;;7.93;6.53;;;;;;;19.50;64.55;101533.63;4967103;28;103870;-70
2021/05/26 09:36:20;;;;;;;20.05;7.10;;;;;;;19.48;64.29;101533.13;4980701;28;101573;-70
2021/05/26 09:39:04;;;;;;;36.75;9.32;;;;;;;19.44;64.33;101536.50;4980233;28;101770;-71
2021/05/26 09:41:33;;;;;;;16.55;7.30;;;;;;;19.39;64.67;101531.09;4981436;28;102082;-71
2021/05/26 09:44:00;;;;;;;16.58;6.95;;;;;;;19.43;64.33;101534.03;4979656;28;102856;-71
2021/05/26 09:46:31;;;;;;;13.10;7.32;;;;;;;19.55;64.51;101519.72;4979744;28;101663;-71
2021/05/26 09:49:09;;;;;;;13.30;7.05;;;;;;;19.54;64.00;101518.06;4979852;28;101837;-71
2021/05/26 09:51:39;;;;;;;9.20;6.93;;;;;;;19.59;63.95;101517.97;4981086;28;102015;-71
2021/05/26 09:54:25;;;;;;;12.70;7.20;;;;;;;19.49;64.20;101515.44;4978860;28;103649;-71
2021/05/26 09:57:05;;;;;;;9.60;6.80;;;;;;;19.49;63.86;101504.41;4978840;28;101847;-71
2021/05/26 09:59:33;;;;;;;10.50;6.50;;;;;;;19.55;63.65;101514.19;4979954;28;101751;-71
2021/05/26 10:02:01;;;;;;;9.80;6.05;;;;;;;19.45;64.00;101510.53;4981208;28;102230;-71
2021/05/26 10:04:27;;;;;;;9.07;6.97;;;;;;;19.41;64.13;101498.50;4979550;28;103901;-71
2021/05/26 10:06:55;;;;;;;11.68;7.28;;;;;;;19.46;64.75;101500.31;4980369;28;101749;-71
2021/05/26 10:09:24;;;;;;;10.57;6.68;;;;;;;19.37;64.65;101497.50;4962557;28;101894;-71
2021/05/26 10:11:55;;;;;;;9.15;5.93;;;;;;;19.42;64.55;101494.59;4978555;28;101728;-70
2021/05/26 10:14:23;;;;;;;11.68;5.95;;;;;;;19.41;64.67;101495.72;4976731;28;102860;-70
2021/05/26 10:16:53;;;;;;;10.77;6.68;;;;;;;19.43;64.35;101487.13;4980584;28;101628;-69
2021/05/26 10:19:23;;;;;;;15.30;6.13;;;;;;;19.43;64.73;101493.47;4979521;28;101584;-69
2021/05/26 10:21:52;;;;;;;14.15;6.25;;;;;;;19.40;64.36;101496.88;4981014;28;102120;-70
2021/05/26 10:24:20;;;;;;;14.70;6.72;;;;;;;19.39;64.69;101503.50;4979300;28;104065;-69
2021/05/26 10:27:01;;;;;;;7.80;5.95;;;;;;;19.39;64.57;101502.69;4980303;28;101785;-70
2021/05/26 10:29:35;;;;;;;6.30;5.70;;;;;;;19.29;64.89;101500.16;4979707;28;101733;-69
2021/05/26 10:32:05;;;;;;;6.93;6.25;;;;;;;19.21;65.19;101498.94;4980882;28;102144;-69
2021/05/26 10:34:55;;;;;;;;;;;;;;;19.29;64.93;101498.19;4979771;28;103882;-70
2021/05/26 10:37:25;;;;;;;7.43;6.45;;;;;;;19.32;65.32;101497.59;4968942;28;102113;-69
2021/05/26 10:39:53;;;;;;;8.00;5.47;;;;;;;19.34;64.81;101502.81;4979504;28;101716;-69
2021/05/26 10:42:29;;;;;;;7.30;5.97;;;;;;;19.27;64.56;101497.72;4980970;28;102145;-69
2021/05/26 10:45:04;;;;;;;9.20;6.18;;;;;;;19.24;64.28;101492.00;4979126;28;103964;-69
2021/05/26 10:47:44;;;;;;;9.82;5.70;;;;;;;19.31;65.29;101497.91;4980278;28;101536;-70
2021/05/26 10:50:15;;;;;;;19.48;6.72;;;;;;;19.40;65.18;101493.25;4982474;28;101728;-70
2021/05/26 10:53:15;;;;;;;17.83;6.78;;;;;;;19.35;64.98;101498.91;4966175;28;102207;-71
2021/05/26 10:55:43;;;;;;;26.20;7.32;;;;;;;19.39;64.30;101486.94;4982439;28;103909;-74
2021/05/26 10:58:13;;;;;;;13.97;6.87;;;;;;;19.15;65.13;101476.19;4983123;28;101813;-75
2021/05/26 11:00:41;;;;;;;13.63;7.35;;;;;;;19.03;65.80;101484.19;4982589;28;101799;-74
2021/05/26 11:03:35;;;;;;;13.50;6.30;;;;;;;18.94;66.16;101473.06;4983902;28;102045;-73
2021/05/26 11:06:04;;;;;;;16.90;7.28;;;;;;;18.90;66.51;101477.56;4982417;28;104033;-74
2021/05/26 11:08:45;;;;;;;13.20;7.50;;;;;;;18.89;66.32;101486.94;4982774;28;101597;-75
2021/05/26 11:11:47;;;;;;;15.35;7.60;;;;;;;18.81;66.75;101473.09;4979637;28;101802;-74
2021/05/26 11:14:32;;;;;;;10.13;7.05;;;;;;;18.80;66.73;101476.97;4983335;28;102173;-74
2021/05/26 11:17:29;;;;;;;12.13;6.72;;;;;;;18.79;66.71;101481.69;4981818;28;103981;-74
2021/05/26 11:20:10;;;;;;;11.80;7.07;;;;;;;18.77;66.55;101472.88;4982731;28;101754;-74
2021/05/26 11:22:37;;;;;;;17.70;7.88;;;;;;;18.71;66.71;101476.88;4982084;28;101935;-74